createdAt,value
2023-02-16T00:00:17.994Z,-1.36
2023-02-16T00:05:42.095Z,-1.41
2023-02-16T00:11:06.619Z,-1.48
2023-02-16T00:16:21.754Z,-1.55
2023-02-16T00:21:28.320Z,-1.57
2023-02-16T00:26:34.725Z,-1.54
2023-02-16T00:31:38.516Z,-1.58
2023-02-16T00:36:42.346Z,-1.61
2023-02-16T00:41:54.386Z,-1.67
2023-02-16T00:47:01.577Z,-1.74
2023-02-16T00:52:37.925Z,-1.78
2023-02-16T00:57:48.140Z,-1.73
2023-02-16T01:02:53.906Z,-1.67
2023-02-16T01:08:17.624Z,-1.67
2023-02-16T01:13:21.400Z,-1.69
2023-02-16T01:18:25.057Z,-1.73
2023-02-16T01:23:29.804Z,-1.78
2023-02-16T01:28:39.711Z,-1.82
2023-02-16T01:33:43.727Z,-1.86
2023-02-16T01:38:47.437Z,-1.89
2023-02-16T01:43:59.631Z,-1.97
2023-02-16T01:49:03.278Z,-2.05
2023-02-16T01:54:23.567Z,-2.12
2023-02-16T01:59:50.389Z,-2.18
2023-02-16T02:05:38.644Z,-2.18
2023-02-16T02:10:55.788Z,-2.19
2023-02-16T02:16:00.489Z,-2.22
2023-02-16T02:21:55.979Z,-2.21
2023-02-16T02:27:11.920Z,-2.18
2023-02-16T02:32:47.560Z,-2.20
2023-02-16T02:38:24.438Z,-2.26
2023-02-16T02:43:53.176Z,-2.33
2023-02-16T02:48:58.483Z,-2.38
2023-02-16T02:54:26.756Z,-2.30
2023-02-16T02:59:56.409Z,-2.21
2023-02-16T03:05:02.938Z,-2.19
2023-02-16T03:10:27.152Z,-2.23
2023-02-16T03:15:31.837Z,-2.30
2023-02-16T03:20:54.184Z,-2.34
2023-02-16T03:26:16.427Z,-2.36
2023-02-16T03:31:28.245Z,-2.26
2023-02-16T03:36:35.035Z,-2.20
2023-02-16T03:41:50.159Z,-2.21
2023-02-16T03:46:54.002Z,-2.24
2023-02-16T03:51:57.661Z,-2.24
2023-02-16T03:57:01.297Z,-2.24
2023-02-16T04:02:05.675Z,-2.25
2023-02-16T04:07:09.518Z,-2.20
2023-02-16T04:12:32.317Z,-2.18
2023-02-16T04:17:37.364Z,-2.19
2023-02-16T04:22:41.755Z,-2.22
2023-02-16T04:27:46.306Z,-2.22
2023-02-16T04:32:50.226Z,-2.21
2023-02-16T04:37:53.885Z,-2.25
2023-02-16T04:42:58.571Z,-2.33
2023-02-16T04:48:02.142Z,-2.43
2023-02-16T04:53:05.826Z,-2.51
2023-02-16T04:58:09.570Z,-2.53
2023-02-16T05:03:13.304Z,-2.54
2023-02-16T05:08:20.723Z,-2.53
2023-02-16T05:13:43.232Z,-2.53
2023-02-16T05:18:47.191Z,-2.55
2023-02-16T05:23:50.892Z,-2.56
2023-02-16T05:28:55.110Z,-2.56
2023-02-16T05:33:58.870Z,-2.58
2023-02-16T05:39:02.664Z,-2.62
2023-02-16T05:44:09.247Z,-2.63
2023-02-16T05:49:14.606Z,-2.57
2023-02-16T05:54:18.619Z,-2.52
2023-02-16T05:59:22.358Z,-2.47
2023-02-16T06:04:26.183Z,-2.45
2023-02-16T06:09:32.390Z,-2.45
2023-02-16T06:14:36.160Z,-2.45
2023-02-16T06:19:39.830Z,-2.49
2023-02-16T06:24:43.501Z,-2.48
2023-02-16T06:29:47.110Z,-2.38
2023-02-16T06:34:50.803Z,-2.27
2023-02-16T06:39:54.542Z,-2.15
2023-02-16T06:44:58.130Z,-2.05
2023-02-16T06:50:02.259Z,-1.95
2023-02-16T06:55:07.013Z,-1.82
2023-02-16T07:00:11.031Z,-1.70
2023-02-16T07:05:14.903Z,-1.53
2023-02-16T07:10:20.450Z,-1.36
2023-02-16T07:15:24.145Z,-1.17
2023-02-16T07:20:30.940Z,-0.99
2023-02-16T07:25:36.130Z,-0.87
2023-02-16T07:30:41.417Z,-0.73
2023-02-16T07:35:45.214Z,-0.56
2023-02-16T07:40:48.869Z,-0.32
2023-02-16T07:45:52.983Z,-0.05
2023-02-16T07:50:56.977Z,0.20
2023-02-16T07:56:00.751Z,0.41
2023-02-16T08:01:10.718Z,0.61
2023-02-16T08:06:15.800Z,0.87
2023-02-16T08:11:24.746Z,1.13
2023-02-16T08:16:29.808Z,1.32
2023-02-16T08:21:34.767Z,1.52
2023-02-16T08:26:41.365Z,1.76
2023-02-16T08:31:47.530Z,1.98
2023-02-16T08:36:57.092Z,2.22
2023-02-16T08:42:02.186Z,2.40
2023-02-16T08:47:12.536Z,2.58
2023-02-16T08:52:17.517Z,2.78
2023-02-16T08:57:22.837Z,3.00
2023-02-16T09:02:26.579Z,3.28
2023-02-16T09:07:37.270Z,3.55
2023-02-16T09:12:41.251Z,3.81
2023-02-16T09:17:45.081Z,4.04
2023-02-16T09:22:48.844Z,4.21
2023-02-16T09:27:53.523Z,4.47
2023-02-16T09:33:00.841Z,4.81
2023-02-16T09:38:04.963Z,5.18
2023-02-16T09:43:59.028Z,5.53
2023-02-16T09:49:15.633Z,5.99
2023-02-16T09:54:37.244Z,6.30
2023-02-16T09:59:59.704Z,6.60
2023-02-16T10:05:13.381Z,6.89
2023-02-16T10:10:35.604Z,7.12
2023-02-16T10:15:41.199Z,7.28
2023-02-16T10:20:47.675Z,7.42
2023-02-16T10:25:57.951Z,7.64
2023-02-16T10:31:06.410Z,7.78
2023-02-16T10:36:32.546Z,7.89
2023-02-16T10:41:46.548Z,8.02
2023-02-16T10:47:04.469Z,8.16
2023-02-16T10:52:08.869Z,8.20
2023-02-16T10:57:34.937Z,8.30
2023-02-16T11:02:48.126Z,8.41
2023-02-16T11:07:58.993Z,8.48
2023-02-16T11:13:06.181Z,8.56
2023-02-16T11:18:30.853Z,8.54
2023-02-16T11:24:05.336Z,8.42
2023-02-16T11:29:34.804Z,8.41
2023-02-16T11:35:16.225Z,8.51
2023-02-16T17:00:20.586Z,4.86
2023-02-16T17:05:27.257Z,4.69
2023-02-16T17:10:35.872Z,4.55
2023-02-16T17:15:48.903Z,4.41
2023-02-16T17:20:55.205Z,4.29
2023-02-16T17:26:00.531Z,4.20
2023-02-16T17:32:18.715Z,4.09
2023-02-16T17:38:11.033Z,3.94
2023-02-16T17:57:59.964Z,3.58
2023-02-16T18:03:07.153Z,3.49
2023-02-16T18:15:04.360Z,3.32
2023-02-16T18:20:14.889Z,3.26
2023-02-16T18:25:28.292Z,3.14
2023-02-16T18:30:48.448Z,3.05
2023-02-16T18:35:58.669Z,2.99
2023-02-16T18:41:04.248Z,2.95
2023-02-16T18:46:12.398Z,2.94
2023-02-16T18:51:18.816Z,2.91
2023-02-16T18:56:31.660Z,2.86
2023-02-16T19:01:37.147Z,2.79
2023-02-16T19:07:38.594Z,2.71
2023-02-16T19:12:44.320Z,2.70
2023-02-16T19:17:51.065Z,2.71
2023-02-16T19:22:57.707Z,2.69
2023-02-16T19:28:10.589Z,2.68
2023-02-16T19:33:19.842Z,2.68
2023-02-16T19:38:25.448Z,2.67
2023-02-16T19:43:30.369Z,2.63
2023-02-16T19:48:37.902Z,2.61
2023-02-16T19:53:47.253Z,2.63
2023-02-16T19:58:55.415Z,2.67
2023-02-16T20:04:03.774Z,2.71
2023-02-16T20:09:14.741Z,2.76
2023-02-16T20:14:25.853Z,2.79
2023-02-16T20:19:36.270Z,2.78
2023-02-16T20:24:42.474Z,2.76
2023-02-16T20:29:47.650Z,2.74
2023-02-16T20:34:56.512Z,2.71
2023-02-16T20:40:02.656Z,2.70
2023-02-16T20:45:10.041Z,2.71
2023-02-16T20:50:17.383Z,2.74
2023-02-16T20:55:22.866Z,2.71
2023-02-16T21:51:38.517Z,2.30
2023-02-16T21:57:30.802Z,2.27
2023-02-16T22:02:34.960Z,2.28
2023-02-16T22:07:39.612Z,2.28
2023-02-16T22:12:43.609Z,2.27
2023-02-16T22:17:49.772Z,2.27
2023-02-16T22:22:53.873Z,2.27
2023-02-16T22:27:57.733Z,2.28
2023-02-16T22:33:01.855Z,2.30
2023-02-16T22:38:05.632Z,2.30
2023-02-16T22:43:09.591Z,2.26
2023-02-16T22:48:13.391Z,2.29
2023-02-16T22:53:17.413Z,2.25
2023-02-16T22:58:21.707Z,2.18
2023-02-16T23:03:25.621Z,2.07
2023-02-16T23:08:29.331Z,1.96
2023-02-16T23:13:34.863Z,1.87
2023-02-16T23:18:40.139Z,1.78
2023-02-16T23:23:44.181Z,1.68
2023-02-16T23:28:55.906Z,1.66
2023-02-16T23:34:02.119Z,1.65
2023-02-16T23:39:09.760Z,1.61
2023-02-16T23:44:15.680Z,1.60
2023-02-16T23:49:41.147Z,1.62
2023-02-16T23:54:44.943Z,1.63
2023-02-16T23:59:48.688Z,1.60
